Time;durP1;ratioP1;P1;durP2;ratioP2;P2;SDS_P1;SDS_P2;PMS_P1;PMS_P2;Temp;Humidity;BMP_temperature;BMP_pressure;BME280_temperature;BME280_humidity;BME280_pressure;Samples;Min_cycle;Max_cycle;Signal;HPM_P1;HPM_P2
2023/05/03 00:01:22;;;;;;;0.43;0.43;;;;;;;13.35;47.49;103051.16;5073005;28;20044;-69
2023/05/03 00:03:51;;;;;;;0.40;0.40;;;;;;;13.31;47.70;103054.41;5073018;28;20036;-69
2023/05/03 00:06:17;;;;;;;0.30;0.30;;;;;;;13.27;48.15;103047.75;5073033;28;20040;-70
2023/05/03 00:08:42;;;;;;;0.45;0.45;;;;;;;13.20;48.15;103050.38;5053809;28;20032;-70
2023/05/03 00:11:08;;;;;;;0.60;0.60;;;;;;;13.14;48.50;103060.06;5073613;28;20392;-69
2023/05/03 00:13:34;;;;;;;0.38;0.38;;;;;;;13.19;48.26;103063.00;5073116;28;20511;-69
2023/05/03 00:16:00;;;;;;;0.40;0.40;;;;;;;13.09;48.70;103073.25;5073132;28;20040;-68
2023/05/03 00:18:25;;;;;;;0.38;0.38;;;;;;;13.01;48.93;103073.31;5073328;28;20056;-71
2023/05/03 00:20:53;;;;;;;0.45;0.45;;;;;;;13.09;49.20;103067.03;5073252;28;20549;-69
2023/05/03 00:23:19;;;;;;;0.40;0.40;;;;;;;13.06;49.43;103064.72;5073500;28;20077;-70
2023/05/03 00:25:44;;;;;;;0.30;0.30;;;;;;;13.11;48.87;103068.50;5072472;28;20381;-68
2023/05/03 00:28:09;;;;;;;0.40;0.40;;;;;;;13.14;48.51;103075.41;5073143;28;20032;-70
2023/05/03 00:30:35;;;;;;;0.47;0.47;;;;;;;13.10;48.70;103074.09;5072683;28;20032;-70
2023/05/03 00:33:00;;;;;;;0.50;0.50;;;;;;;12.95;48.63;103070.56;5072594;28;20067;-70
2023/05/03 00:35:28;;;;;;;0.40;0.40;;;;;;;13.03;48.69;103070.47;5073195;28;20112;-70
2023/05/03 00:37:53;;;;;;;0.50;0.50;;;;;;;13.12;48.50;103067.50;5071710;28;20040;-69
2023/05/03 00:40:19;;;;;;;0.50;0.50;;;;;;;12.94;48.76;103068.88;5054718;28;20086;-69
2023/05/03 00:42:47;;;;;;;0.40;0.40;;;;;;;12.89;48.73;103071.28;5072691;28;20517;-69
2023/05/03 00:45:12;;;;;;;0.40;0.40;;;;;;;12.97;48.61;103065.81;5057646;28;20496;-69
2023/05/03 00:47:38;;;;;;;0.60;0.60;;;;;;;12.94;48.67;103066.16;5051942;28;20035;-70
2023/05/03 00:50:05;;;;;;;0.50;0.50;;;;;;;12.88;48.97;103067.75;5052832;28;20060;-69
2023/05/03 00:52:30;;;;;;;0.50;0.50;;;;;;;13.03;48.12;103059.66;5052534;28;20048;-69
2023/05/03 00:54:56;;;;;;;0.30;0.30;;;;;;;12.80;48.95;103070.53;5052597;28;20087;-69
2023/05/03 00:57:23;;;;;;;0.50;0.50;;;;;;;12.84;49.24;103073.69;5052208;28;20485;-70
2023/05/03 00:59:49;;;;;;;0.50;0.50;;;;;;;12.76;49.00;103071.94;5061448;28;20457;-70
2023/05/03 01:02:14;;;;;;;0.60;0.60;;;;;;;12.79;48.96;103065.34;5072610;28;20093;-69
2023/05/03 01:04:41;;;;;;;0.50;0.50;;;;;;;12.72;48.44;103059.84;5044096;28;20474;-70
2023/05/03 01:07:28;;;;;;;0.50;0.50;;;;;;;12.90;48.71;103059.47;5072205;28;20063;-71
2023/05/03 01:10:26;;;;;;;0.43;0.43;;;;;;;13.31;47.58;103054.41;5072291;28;20101;-71
2023/05/03 01:13:22;;;;;;;0.50;0.50;;;;;;;12.98;47.86;103048.56;5071743;28;20097;-69
2023/05/03 01:16:01;;;;;;;0.50;0.50;;;;;;;12.60;49.32;103050.53;5053817;28;20048;-69
2023/05/03 01:18:33;;;;;;;0.50;0.50;;;;;;;12.71;49.35;103051.94;5072248;28;20059;-69
2023/05/03 01:20:59;;;;;;;0.40;0.40;;;;;;;12.59;49.64;103042.63;5073767;28;20094;-70
2023/05/03 01:23:32;;;;;;;0.40;0.40;;;;;;;12.66;49.42;103052.47;5072537;28;20033;-71
2023/05/03 01:25:57;;;;;;;0.50;0.50;;;;;;;12.63;49.26;103055.56;5072099;28;20416;-71
2023/05/03 01:28:23;;;;;;;0.50;0.50;;;;;;;12.58;48.87;103054.44;5072143;28;20040;-69
2023/05/03 01:30:51;;;;;;;0.50;0.50;;;;;;;12.62;48.81;103059.25;5072190;28;20094;-71
2023/05/03 01:33:33;;;;;;;0.50;0.50;;;;;;;12.57;49.37;103058.16;5072029;28;20043;-70
2023/05/03 01:36:12;;;;;;;0.50;0.50;;;;;;;12.66;49.08;103063.25;5073070;28;20043;-71
2023/05/03 01:38:38;;;;;;;0.40;0.40;;;;;;;12.56;49.01;103067.28;5073731;28;20028;-70
2023/05/03 01:41:10;;;;;;;0.40;0.40;;;;;;;12.53;49.74;103065.78;5071901;28;20042;-70
2023/05/03 01:43:37;;;;;;;0.50;0.50;;;;;;;12.44;49.66;103057.94;5069754;28;20520;-70
2023/05/03 01:46:03;;;;;;;0.40;0.40;;;;;;;12.56;49.54;103062.69;5051423;28;20044;-70
2023/05/03 01:48:28;;;;;;;0.40;0.40;;;;;;;12.45;49.28;103065.00;5051102;28;20063;-69
2023/05/03 01:50:54;;;;;;;0.50;0.50;;;;;;;12.31;49.78;103064.81;5051634;28;20111;-69
2023/05/03 01:53:19;;;;;;;0.40;0.40;;;;;;;12.33;49.96;103065.47;5051866;28;20488;-69
2023/05/03 01:55:44;;;;;;;0.50;0.50;;;;;;;12.35;49.58;103065.25;5032733;28;20065;-70
2023/05/03 01:58:11;;;;;;;0.60;0.60;;;;;;;12.27;49.94;103062.63;5051464;28;20400;-70
2023/05/03 02:00:37;;;;;;;0.52;0.52;;;;;;;12.21;50.15;103068.75;5066439;28;20403;-69
2023/05/03 02:03:02;;;;;;;0.47;0.47;;;;;;;12.15;50.36;103067.63;5070693;28;20036;-68
2023/05/03 02:05:27;;;;;;;0.50;0.50;;;;;;;12.20;50.21;103061.72;5070921;28;20475;-68
2023/05/03 02:07:53;;;;;;;0.40;0.40;;;;;;;12.15;50.75;103062.25;5071513;28;20111;-69
2023/05/03 02:10:18;;;;;;;0.50;0.50;;;;;;;12.05;50.58;103048.16;5071171;28;20122;-69
2023/05/03 02:12:44;;;;;;;0.50;0.50;;;;;;;11.91;51.58;103050.84;5071026;28;20044;-69
2023/05/03 02:15:10;;;;;;;0.60;0.60;;;;;;;12.06;50.87;103040.94;5052742;28;20040;-69
2023/05/03 02:17:36;;;;;;;0.68;0.68;;;;;;;11.92;50.95;103045.25;5070440;28;20051;-71
2023/05/03 02:20:08;;;;;;;0.50;0.50;;;;;;;11.88;50.90;103045.78;5071557;28;20032;-70
2023/05/03 02:22:34;;;;;;;0.50;0.50;;;;;;;11.84;51.00;103039.94;5070764;28;20100;-70
2023/05/03 02:24:59;;;;;;;0.50;0.50;;;;;;;11.78;50.89;103037.94;5070965;28;20036;-68
2023/05/03 02:27:25;;;;;;;0.47;0.47;;;;;;;11.86;51.57;103043.28;5070116;28;20416;-69
2023/05/03 02:29:51;;;;;;;0.60;0.60;;;;;;;11.92;51.08;103036.31;5070721;28;20040;-69
2023/05/03 02:32:16;;;;;;;0.40;0.40;;;;;;;11.86;50.85;103034.34;5071165;28;20461;-68
2023/05/03 02:34:43;;;;;;;0.40;0.40;;;;;;;11.88;51.07;103035.00;5070442;28;20033;-70
2023/05/03 02:37:09;;;;;;;0.60;0.60;;;;;;;11.85;51.05;103038.09;5070440;28;20033;-69
2023/05/03 02:39:34;;;;;;;0.50;0.50;;;;;;;11.76;51.47;103036.44;5070671;28;20053;-69
2023/05/03 02:42:01;;;;;;;0.57;0.57;;;;;;;11.82;50.87;103033.03;5070301;28;20083;-70
2023/05/03 02:44:26;;;;;;;0.50;0.50;;;;;;;11.80;51.47;103030.53;5070535;28;20044;-69
2023/05/03 02:46:53;;;;;;;0.60;0.60;;;;;;;11.69;51.09;103030.97;5070509;28;20033;-69
2023/05/03 02:49:19;;;;;;;0.68;0.68;;;;;;;11.75;51.18;103022.16;5051700;28;20144;-69
2023/05/03 02:51:44;;;;;;;0.50;0.50;;;;;;;11.71;50.54;103034.31;5052129;28;20380;-69
2023/05/03 02:54:10;;;;;;;0.50;0.50;;;;;;;11.64;51.19;103030.59;5070393;28;20033;-69
2023/05/03 02:56:35;;;;;;;0.40;0.40;;;;;;;11.69;51.15;103019.34;5065209;28;20476;-71
2023/05/03 02:59:01;;;;;;;0.50;0.50;;;;;;;11.71;51.07;103025.38;5070875;28;20051;-69
2023/05/03 03:01:27;;;;;;;0.57;0.57;;;;;;;11.63;51.57;103026.25;5073608;28;20110;-69
2023/05/03 03:03:52;;;;;;;0.52;0.52;;;;;;;11.59;51.49;103024.94;5074555;28;20556;-70
2023/05/03 03:06:18;;;;;;;0.50;0.50;;;;;;;11.92;51.41;103014.78;5074209;28;20053;-69
2023/05/03 03:08:43;;;;;;;0.50;0.50;;;;;;;12.05;50.44;103015.84;5074445;28;20469;-70
2023/05/03 03:11:09;;;;;;;0.60;0.60;;;;;;;11.90;50.74;103012.25;5074614;28;20473;-69
2023/05/03 03:13:38;;;;;;;0.50;0.50;;;;;;;12.09;49.96;103005.53;5074150;28;20039;-69
2023/05/03 03:16:07;;;;;;;0.60;0.60;;;;;;;11.91;50.77;102996.94;5073922;28;20036;-69
2023/05/03 03:18:33;;;;;;;0.50;0.50;;;;;;;11.91;50.04;102997.75;5073998;28;20095;-71
2023/05/03 03:21:00;;;;;;;0.60;0.60;;;;;;;11.58;51.17;102996.31;5074210;28;20488;-69
2023/05/03 03:23:25;;;;;;;0.75;0.75;;;;;;;11.31;52.58;103002.22;5074247;28;20037;-69
2023/05/03 03:25:51;;;;;;;0.55;0.55;;;;;;;11.42;52.08;103004.50;5055888;28;20060;-69
2023/05/03 03:28:17;;;;;;;0.63;0.63;;;;;;;11.33;51.72;103019.88;5073968;28;20131;-70
2023/05/03 03:30:42;;;;;;;0.45;0.45;;;;;;;11.78;50.15;103007.47;5073862;28;20044;-71
2023/05/03 03:33:08;;;;;;;0.50;0.50;;;;;;;11.82;50.01;103008.78;5054894;28;20032;-70
2023/05/03 03:35:33;;;;;;;0.60;0.60;;;;;;;11.73;50.55;103010.72;5073508;28;20024;-70
2023/05/03 03:37:59;;;;;;;0.50;0.50;;;;;;;11.56;50.72;103019.88;5074519;28;20047;-70
2023/05/03 03:40:24;;;;;;;0.70;0.70;;;;;;;11.36;51.12;103026.75;5073622;28;20582;-68
2023/05/03 03:42:49;;;;;;;0.70;0.70;;;;;;;11.24;52.46;103026.28;5073411;28;20506;-70
2023/05/03 03:45:15;;;;;;;0.50;0.50;;;;;;;11.18;52.68;103029.69;5073351;28;20036;-70
2023/05/03 03:47:40;;;;;;;0.50;0.50;;;;;;;11.22;52.95;103036.41;5073279;28;20032;-70
2023/05/03 03:50:06;;;;;;;0.60;0.60;;;;;;;11.17;54.19;103036.09;5055677;28;20422;-69
2023/05/03 03:52:31;;;;;;;0.57;0.57;;;;;;;11.21;53.56;103033.88;5072817;28;20047;-72
2023/05/03 03:54:56;;;;;;;0.60;0.60;;;;;;;11.12;53.55;103027.72;5073161;28;20040;-69
2023/05/03 03:57:23;;;;;;;0.50;0.50;;;;;;;11.14;53.77;103031.09;5073534;28;20040;-70
2023/05/03 03:59:50;;;;;;;0.65;0.65;;;;;;;11.10;53.70;103032.44;5073553;28;20045;-70
2023/05/03 04:02:15;;;;;;;0.50;0.50;;;;;;;11.02;53.24;103032.47;5073006;28;20468;-69
2023/05/03 04:04:41;;;;;;;0.60;0.60;;;;;;;11.01;53.54;103032.63;5072622;28;20033;-69
2023/05/03 04:07:08;;;;;;;0.60;0.60;;;;;;;11.03;52.71;103034.13;5072752;28;20040;-70
2023/05/03 04:09:33;;;;;;;0.63;0.63;;;;;;;11.05;53.81;103039.34;5055626;28;20037;-70
2023/05/03 04:12:00;;;;;;;0.60;0.60;;;;;;;11.15;53.20;103046.19;5073647;28;20064;-69
2023/05/03 04:14:26;;;;;;;0.70;0.70;;;;;;;11.14;52.75;103051.75;5074124;28;20028;-69
2023/05/03 04:16:51;;;;;;;0.50;0.50;;;;;;;10.99;53.75;103056.19;5073690;28;20153;-69
2023/05/03 04:19:17;;;;;;;0.70;0.70;;;;;;;11.12;53.51;103051.09;5072899;28;20067;-68
2023/05/03 04:21:43;;;;;;;0.50;0.50;;;;;;;11.10;53.47;103062.03;5072878;28;20127;-70
2023/05/03 04:24:08;;;;;;;0.60;0.60;;;;;;;11.01;54.76;103060.38;5072801;28;20109;-70
2023/05/03 04:26:34;;;;;;;0.60;0.60;;;;;;;11.08;54.23;103063.22;5072613;28;20037;-69
2023/05/03 04:28:59;;;;;;;0.57;0.57;;;;;;;11.06;54.56;103059.88;5072994;28;20392;-69
2023/05/03 04:31:25;;;;;;;0.50;0.50;;;;;;;11.09;55.09;103063.03;5072949;28;20040;-71
2023/05/03 04:33:51;;;;;;;0.60;0.60;;;;;;;11.15;55.28;103061.50;5072866;28;20036;-70
2023/05/03 04:36:17;;;;;;;0.55;0.55;;;;;;;11.06;54.11;103074.16;5072716;28;20094;-69
2023/05/03 04:38:43;;;;;;;0.50;0.50;;;;;;;11.02;55.11;103061.22;5072836;28;20499;-68
2023/05/03 04:41:08;;;;;;;0.70;0.70;;;;;;;11.21;55.45;103067.03;5072949;28;20056;-70
2023/05/03 04:43:34;;;;;;;0.60;0.60;;;;;;;11.33;55.02;103071.00;5072155;28;20036;-70
2023/05/03 04:46:01;;;;;;;0.70;0.70;;;;;;;11.26;54.91;103072.72;5072361;28;20041;-69
2023/05/03 04:48:26;;;;;;;0.63;0.63;;;;;;;11.41;54.97;103078.22;5072161;28;20037;-70
2023/05/03 04:50:52;;;;;;;0.63;0.63;;;;;;;11.34;55.26;103083.44;5072443;28;20424;-70
2023/05/03 04:53:17;;;;;;;0.60;0.60;;;;;;;11.36;55.61;103085.97;5073136;28;20064;-70
2023/05/03 04:55:42;;;;;;;0.50;0.50;;;;;;;11.40;54.93;103090.81;5072076;28;20401;-69
2023/05/03 04:58:08;;;;;;;0.50;0.50;;;;;;;11.50;54.77;103091.44;5072644;28;20060;-67
2023/05/03 05:00:33;;;;;;;0.60;0.60;;;;;;;11.52;54.66;103092.09;5072335;28;20044;-69
2023/05/03 05:02:59;;;;;;;0.50;0.50;;;;;;;11.56;54.29;103097.16;5072011;28;20560;-69
2023/05/03 05:05:25;;;;;;;0.60;0.60;;;;;;;11.88;52.93;103097.81;5072560;28;20025;-68
2023/05/03 05:07:50;;;;;;;0.50;0.50;;;;;;;12.16;52.20;103088.19;5072632;28;20043;-70
2023/05/03 05:10:16;;;;;;;0.50;0.50;;;;;;;12.22;52.12;103094.72;5072380;28;20059;-68
2023/05/03 05:12:41;;;;;;;0.70;0.70;;;;;;;12.31;52.02;103097.16;5072079;28;20045;-71
2023/05/03 05:15:07;;;;;;;0.65;0.65;;;;;;;12.37;51.93;103100.97;5072209;28;20044;-68
2023/05/03 05:17:33;;;;;;;0.50;0.50;;;;;;;12.40;51.73;103097.94;5072202;28;20028;-68
2023/05/03 05:19:59;;;;;;;0.52;0.52;;;;;;;12.40;52.25;103097.09;5077287;28;20159;-70
2023/05/03 05:22:24;;;;;;;0.50;0.50;;;;;;;12.53;50.98;103094.59;5076834;28;20412;-68
2023/05/03 05:24:50;;;;;;;0.50;0.50;;;;;;;12.55;51.67;103095.25;5077703;28;20048;-70
2023/05/03 05:27:15;;;;;;;0.60;0.60;;;;;;;12.65;51.30;103093.13;5076999;28;20052;-69
2023/05/03 05:29:41;;;;;;;0.43;0.43;;;;;;;12.76;51.54;103098.06;5077658;28;20627;-69
2023/05/03 05:32:06;;;;;;;0.50;0.50;;;;;;;12.89;51.61;103103.69;5077241;28;20029;-70
2023/05/03 05:34:31;;;;;;;0.43;0.43;;;;;;;12.75;51.95;103102.66;5075454;28;20168;-71
2023/05/03 05:36:57;;;;;;;0.50;0.50;;;;;;;12.75;51.14;103110.75;5072733;28;20128;-71
2023/05/03 05:39:22;;;;;;;0.50;0.50;;;;;;;12.85;50.82;103114.00;5072137;28;20152;-68
2023/05/03 05:41:48;;;;;;;0.50;0.50;;;;;;;13.07;50.69;103098.78;5071641;28;20563;-72
2023/05/03 05:44:13;;;;;;;0.40;0.40;;;;;;;13.12;50.37;103107.16;5053493;28;20021;-71
2023/05/03 05:46:39;;;;;;;0.50;0.50;;;;;;;13.20;49.97;103115.16;5071365;28;20037;-71
2023/05/03 05:49:05;;;;;;;0.50;0.50;;;;;;;13.28;50.13;103111.53;5059997;28;20098;-70
2023/05/03 05:51:30;;;;;;;0.55;0.55;;;;;;;13.34;49.87;103116.16;5070474;28;20110;-70
2023/05/03 05:53:56;;;;;;;0.60;0.60;;;;;;;13.50;49.75;103119.50;5071162;28;20109;-69
2023/05/03 05:56:22;;;;;;;0.50;0.50;;;;;;;13.56;50.12;103120.63;5071299;28;20021;-71
2023/05/03 05:58:47;;;;;;;0.68;0.68;;;;;;;13.68;49.74;103122.63;5071162;28;20032;-70
2023/05/03 06:01:12;;;;;;;0.60;0.60;;;;;;;13.82;49.47;103126.31;5070839;28;20533;-69
2023/05/03 06:03:38;;;;;;;0.50;0.50;;;;;;;13.72;48.67;103120.41;5070897;28;20040;-70
2023/05/03 06:06:03;;;;;;;0.40;0.40;;;;;;;13.97;48.03;103127.94;5070710;28;20032;-70
2023/05/03 06:08:29;;;;;;;0.55;0.55;;;;;;;14.04;47.50;103118.03;5070665;28;20060;-69
2023/05/03 06:10:54;;;;;;;0.50;0.50;;;;;;;14.14;47.32;103117.72;5071424;28;20029;-70
2023/05/03 06:13:21;;;;;;;0.50;0.50;;;;;;;14.20;46.80;103116.94;5070634;28;20036;-68
2023/05/03 06:15:46;;;;;;;0.50;0.50;;;;;;;14.24;46.46;103128.22;5070263;28;20044;-69
2023/05/03 06:18:11;;;;;;;0.50;0.50;;;;;;;14.29;46.29;103123.91;5070708;28;20033;-70
2023/05/03 06:20:37;;;;;;;0.50;0.50;;;;;;;14.63;45.22;103128.59;5070472;28;20035;-68
2023/05/03 06:23:02;;;;;;;0.40;0.40;;;;;;;14.21;47.27;103117.81;5071096;28;20063;-70
2023/05/03 06:25:27;;;;;;;0.40;0.40;;;;;;;14.03;47.49;103123.66;5070543;28;20117;-70
2023/05/03 06:27:53;;;;;;;0.60;0.60;;;;;;;14.19;46.68;103114.44;5052358;28;20105;-69
2023/05/03 06:30:18;;;;;;;0.40;0.40;;;;;;;14.31;46.40;103113.75;5070289;28;20055;-69
2023/05/03 06:32:46;;;;;;;0.30;0.30;;;;;;;14.40;46.10;103120.72;5070426;28;20051;-70
2023/05/03 06:35:12;;;;;;;0.50;0.50;;;;;;;14.51;45.73;103111.22;5070875;28;20047;-68
2023/05/03 06:37:38;;;;;;;0.40;0.40;;;;;;;14.42;45.88;103117.81;5070452;28;20040;-70
2023/05/03 06:40:05;;;;;;;0.55;0.55;;;;;;;14.64;44.98;103116.75;5070096;28;20052;-70
2023/05/03 06:42:31;;;;;;;0.47;0.47;;;;;;;14.65;44.97;103110.28;5052707;28;20048;-71
2023/05/03 06:44:56;;;;;;;0.20;0.20;;;;;;;14.91;44.55;103113.19;5057724;28;20037;-69
2023/05/03 06:47:22;;;;;;;0.60;0.60;;;;;;;14.94;44.26;103104.66;5051173;28;20068;-69
2023/05/03 06:49:47;;;;;;;0.43;0.43;;;;;;;14.74;44.17;103104.53;5031927;28;20055;-69
2023/05/03 06:52:13;;;;;;;0.50;0.50;;;;;;;14.93;43.67;103106.56;5050217;28;20068;-69
2023/05/03 06:54:39;;;;;;;0.35;0.35;;;;;;;15.13;43.47;103108.53;5032367;28;20111;-70
2023/05/03 06:57:04;;;;;;;0.40;0.40;;;;;;;15.47;42.31;103111.22;5050323;28;20041;-70
2023/05/03 06:59:30;;;;;;;0.32;0.32;;;;;;;15.44;42.03;103114.34;5050489;28;20154;-68
2023/05/03 07:01:55;;;;;;;0.60;0.60;;;;;;;15.39;41.41;103120.31;5051180;28;20017;-69
2023/05/03 07:04:21;;;;;;;0.43;0.43;;;;;;;15.07;41.32;103117.47;5032306;28;20132;-69
2023/05/03 07:06:46;;;;;;;0.50;0.50;;;;;;;15.28;40.68;103109.22;5050333;28;20041;-69
2023/05/03 07:09:11;;;;;;;0.57;0.57;;;;;;;14.97;41.84;103109.69;5050057;28;20035;-70
2023/05/03 07:11:39;;;;;;;0.60;0.60;;;;;;;15.09;41.51;103109.97;5050277;28;20032;-69
2023/05/03 07:14:04;;;;;;;0.47;0.47;;;;;;;15.57;39.91;103100.84;5050761;28;20055;-68
2023/05/03 07:16:30;;;;;;;0.77;0.77;;;;;;;15.87;39.56;103107.63;5051935;28;20049;-69
2023/05/03 07:18:55;;;;;;;0.57;0.57;;;;;;;15.23;40.51;103103.59;5070209;28;20116;-69
2023/05/03 07:21:20;;;;;;;0.50;0.50;;;;;;;15.86;39.26;103103.25;5070397;28;20037;-69
2023/05/03 07:23:46;;;;;;;0.40;0.40;;;;;;;15.76;39.23;103092.75;5070010;28;20112;-68
2023/05/03 07:26:11;;;;;;;0.50;0.50;;;;;;;16.51;38.34;103091.66;5070346;28;20489;-71
2023/05/03 07:28:36;;;;;;;0.30;0.30;;;;;;;16.25;38.58;103089.75;5069594;28;20036;-70
2023/05/03 07:31:03;;;;;;;0.50;0.50;;;;;;;16.81;36.84;103084.72;5070231;28;20186;-70
2023/05/03 07:33:29;;;;;;;0.40;0.40;;;;;;;16.61;37.61;103086.59;5070098;28;20036;-70
2023/05/03 07:35:54;;;;;;;0.43;0.43;;;;;;;16.75;37.86;103077.41;5069800;28;20463;-72
2023/05/03 07:38:20;;;;;;;0.43;0.43;;;;;;;17.06;36.67;103074.81;5046603;28;20059;-71
2023/05/03 07:40:45;;;;;;;0.40;0.40;;;;;;;17.54;36.92;103073.41;5070372;28;20032;-69
2023/05/03 07:43:11;;;;;;;0.40;0.40;;;;;;;17.40;36.25;103073.66;5071037;28;20433;-70
2023/05/03 07:45:37;;;;;;;0.55;0.55;;;;;;;16.66;37.63;103071.38;5053248;28;20029;-70
2023/05/03 07:48:03;;;;;;;0.50;0.50;;;;;;;15.74;38.52;103070.44;5074696;28;20134;-71
2023/05/03 07:50:29;;;;;;;0.40;0.40;;;;;;;15.39;38.80;103073.44;5074431;28;20029;-69
2023/05/03 07:52:55;;;;;;;0.43;0.43;;;;;;;16.28;37.66;103070.31;5075075;28;20031;-70
2023/05/03 07:55:21;;;;;;;0.45;0.45;;;;;;;16.31;38.64;103069.06;5073449;28;20112;-69
2023/05/03 07:57:46;;;;;;;0.52;0.52;;;;;;;16.50;37.04;103071.81;5073579;28;20058;-70
2023/05/03 08:00:12;;;;;;;0.38;0.38;;;;;;;17.05;37.40;103078.59;5073515;28;20072;-69
2023/05/03 08:02:38;;;;;;;0.50;0.50;;;;;;;17.35;35.74;103065.31;5073690;28;20020;-70
2023/05/03 08:05:04;;;;;;;0.30;0.30;;;;;;;16.29;37.94;103058.44;5075099;28;20036;-69
2023/05/03 08:07:30;;;;;;;0.40;0.40;;;;;;;17.02;36.18;103053.75;5073587;28;20115;-71
2023/05/03 08:09:57;;;;;;;0.40;0.40;;;;;;;16.39;37.29;103053.41;5073478;28;20492;-70
2023/05/03 08:12:25;;;;;;;0.40;0.40;;;;;;;17.12;36.37;103057.66;5072973;28;20036;-71
2023/05/03 08:14:52;;;;;;;0.35;0.35;;;;;;;17.00;37.39;103062.09;5072856;28;20045;-70
2023/05/03 08:17:18;;;;;;;0.52;0.52;;;;;;;17.17;36.25;103057.88;5073228;28;20047;-70
2023/05/03 08:19:44;;;;;;;0.40;0.40;;;;;;;17.77;36.57;103063.88;5072807;28;20493;-69
2023/05/03 08:22:11;;;;;;;0.43;0.43;;;;;;;17.24;35.52;103063.25;5072850;28;20081;-69
2023/05/03 08:24:37;;;;;;;0.40;0.40;;;;;;;17.40;35.69;103055.47;5072741;28;20024;-69
2023/05/03 08:27:02;;;;;;;0.30;0.30;;;;;;;17.21;36.05;103048.25;5072356;28;20412;-71
2023/05/03 08:29:28;;;;;;;0.30;0.30;;;;;;;17.62;35.57;103053.28;5072674;28;20047;-68
2023/05/03 08:31:53;;;;;;;0.20;0.20;;;;;;;17.41;36.15;103046.25;5073179;28;20043;-69
2023/05/03 08:34:18;;;;;;;0.30;0.30;;;;;;;16.78;36.48;103052.56;5064775;28;20485;-69
2023/05/03 08:36:44;;;;;;;0.40;0.40;;;;;;;17.24;35.52;103055.09;5072649;28;20033;-70
2023/05/03 08:39:10;;;;;;;0.40;0.40;;;;;;;17.26;36.06;103061.16;5072481;28;20032;-70
2023/05/03 08:41:35;;;;;;;0.40;0.40;;;;;;;18.11;34.56;103061.53;5072691;28;20020;-69
2023/05/03 08:44:04;;;;;;;0.30;0.30;;;;;;;18.35;33.48;103055.28;5067918;28;20029;-69
2023/05/03 08:46:31;;;;;;;0.40;0.40;;;;;;;18.43;33.78;103062.34;5052636;28;20037;-68
2023/05/03 08:48:57;;;;;;;0.30;0.30;;;;;;;18.35;33.93;103057.16;5052560;28;20060;-70
2023/05/03 08:51:24;;;;;;;0.47;0.47;;;;;;;18.03;33.56;103061.81;5034035;28;20037;-70
2023/05/03 08:53:49;;;;;;;0.60;0.60;;;;;;;17.89;35.68;103064.81;5052100;28;20045;-69
2023/05/03 08:56:32;;;;;;;0.30;0.30;;;;;;;18.45;34.19;103062.13;5052480;28;20107;-69
2023/05/03 08:59:06;;;;;;;0.40;0.40;;;;;;;17.71;34.88;103053.88;5051297;28;20071;-73
2023/05/03 09:01:32;;;;;;;0.30;0.30;;;;;;;18.37;33.95;103047.72;5051861;28;20107;-71
2023/05/03 09:03:57;;;;;;;0.43;0.43;;;;;;;19.03;32.10;103047.03;5051931;28;20033;-70
2023/05/03 09:06:27;;;;;;;0.22;0.22;;;;;;;18.64;34.50;103048.31;5051997;28;20421;-70
2023/05/03 09:08:53;;;;;;;0.40;0.40;;;;;;;17.92;34.77;103043.47;5052029;28;20041;-68
2023/05/03 09:11:23;;;;;;;0.40;0.40;;;;;;;19.33;32.17;103044.41;5052674;28;20028;-69
2023/05/03 09:13:50;;;;;;;0.50;0.50;;;;;;;18.93;32.72;103052.19;5049465;28;20103;-69
2023/05/03 09:16:23;;;;;;;0.40;0.40;;;;;;;19.51;33.23;103056.13;5052274;28;20119;-68
2023/05/03 09:18:56;;;;;;;0.32;0.32;;;;;;;19.48;32.40;103050.31;5051857;28;20429;-70
2023/05/03 09:21:21;;;;;;;0.30;0.30;;;;;;;18.88;32.83;103066.50;5051793;28;20492;-68
2023/05/03 09:23:47;;;;;;;0.40;0.40;;;;;;;18.26;34.12;103063.91;5051505;28;20041;-68
2023/05/03 09:26:26;;;;;;;0.30;0.30;;;;;;;17.06;36.93;103058.53;5051752;28;20489;-70
2023/05/03 09:28:52;;;;;;;0.30;0.30;;;;;;;19.35;33.20;103048.56;5052004;28;20045;-69
2023/05/03 09:31:17;;;;;;;0.30;0.30;;;;;;;19.13;33.08;103061.81;5071226;28;20032;-68
2023/05/03 09:33:43;;;;;;;0.35;0.35;;;;;;;19.07;32.94;103076.34;5071411;28;20036;-68
2023/05/03 09:36:08;;;;;;;0.38;0.38;;;;;;;18.32;34.53;103076.63;5071314;28;20032;-69
2023/05/03 09:38:37;;;;;;;0.20;0.20;;;;;;;19.27;33.24;103074.22;5070506;28;20017;-69
2023/05/03 09:41:04;;;;;;;0.30;0.30;;;;;;;19.83;33.22;103064.91;5051975;28;20013;-69
2023/05/03 09:43:30;;;;;;;0.40;0.40;;;;;;;19.63;33.05;103064.34;5050948;28;20108;-68
2023/05/03 09:46:10;;;;;;;0.35;0.35;;;;;;;19.89;31.19;103056.59;5051140;28;20113;-68
2023/05/03 09:48:37;;;;;;;0.30;0.30;;;;;;;20.10;30.88;103047.06;5051181;28;20519;-69
2023/05/03 09:51:04;;;;;;;0.30;0.30;;;;;;;20.00;30.72;103047.63;5056275;28;20039;-70
2023/05/03 09:53:31;;;;;;;0.30;0.30;;;;;;;19.28;32.46;103059.53;5053116;28;20025;-68
2023/05/03 09:55:58;;;;;;;0.30;0.30;;;;;;;19.64;32.30;103063.28;5051699;28;20299;-69
2023/05/03 09:58:24;;;;;;;0.30;0.30;;;;;;;19.61;31.36;103064.59;5051158;28;20057;-69
2023/05/03 10:00:51;;;;;;;0.40;0.40;;;;;;;19.46;31.25;103060.63;5051034;28;20409;-70
2023/05/03 10:03:23;;;;;;;0.30;0.30;;;;;;;17.83;33.42;103063.81;5057539;28;20077;-70
2023/05/03 10:05:50;;;;;;;0.40;0.40;;;;;;;18.31;33.40;103062.22;5068466;28;20047;-68
2023/05/03 10:08:33;;;;;;;0.22;0.22;;;;;;;19.18;32.27;103048.31;5052047;28;20028;-69
2023/05/03 10:10:58;;;;;;;0.30;0.30;;;;;;;19.00;33.09;103059.25;5054081;28;20056;-69
2023/05/03 10:13:24;;;;;;;0.28;0.28;;;;;;;20.46;29.76;103043.31;5055958;28;20025;-68
2023/05/03 10:15:59;;;;;;;0.40;0.40;;;;;;;19.68;31.78;103050.84;5055593;28;20143;-68
2023/05/03 10:18:28;;;;;;;0.50;0.50;;;;;;;17.74;34.13;103046.13;5060446;28;20029;-68
2023/05/03 10:21:03;;;;;;;0.22;0.22;;;;;;;19.63;31.80;103043.38;5067294;28;20503;-68
2023/05/03 10:23:28;;;;;;;0.47;0.47;;;;;;;20.08;31.23;103038.25;5051347;28;20446;-68
2023/05/03 10:26:06;;;;;;;0.40;0.40;;;;;;;20.66;30.55;103035.56;5050947;28;20128;-68
2023/05/03 10:28:36;;;;;;;0.40;0.40;;;;;;;20.33;30.11;103033.44;5050517;28;20409;-69
2023/05/03 10:31:01;;;;;;;0.30;0.30;;;;;;;20.72;30.37;103030.00;5063971;28;20032;-68
2023/05/03 10:33:30;;;;;;;0.32;0.32;;;;;;;20.60;30.71;103020.97;5061909;28;20044;-68
2023/05/03 10:35:56;;;;;;;0.40;0.40;;;;;;;21.17;29.44;103021.97;5050617;28;20079;-68
2023/05/03 10:38:26;;;;;;;0.30;0.30;;;;;;;20.69;28.84;103016.81;5050994;28;20040;-68
2023/05/03 10:40:55;;;;;;;0.20;0.20;;;;;;;21.07;28.95;103019.00;5032991;28;20033;-69
2023/05/03 10:43:33;;;;;;;0.30;0.30;;;;;;;20.82;29.84;103021.19;5050404;28;20033;-68
2023/05/03 10:46:03;;;;;;;0.30;0.30;;;;;;;20.13;31.70;103024.72;5043029;28;20128;-69
2023/05/03 10:48:30;;;;;;;0.30;0.30;;;;;;;19.41;32.16;103016.81;5032491;28;20400;-69
2023/05/03 10:51:16;;;;;;;0.30;0.30;;;;;;;20.86;29.68;103025.09;5042262;28;20500;-69
2023/05/03 10:53:42;;;;;;;0.20;0.20;;;;;;;18.89;33.21;103021.00;5049990;28;20496;-68
2023/05/03 10:56:14;;;;;;;0.20;0.20;;;;;;;20.00;32.04;103023.06;5050689;28;20397;-69
2023/05/03 10:58:44;;;;;;;0.30;0.30;;;;;;;21.31;29.47;103012.41;5049975;28;20025;-67
2023/05/03 11:01:12;;;;;;;0.30;0.30;;;;;;;21.21;29.92;103012.19;5050265;28;20504;-69
2023/05/03 11:04:11;;;;;;;0.30;0.30;;;;;;;21.59;29.13;103020.59;5049865;28;20431;-68
2023/05/03 11:06:39;;;;;;;0.28;0.28;;;;;;;19.81;31.67;103012.47;5063446;28;20234;-69
2023/05/03 11:09:07;;;;;;;0.30;0.30;;;;;;;21.50;29.46;103019.31;5069851;28;20036;-69
2023/05/03 11:11:35;;;;;;;0.30;0.30;;;;;;;19.55;30.46;103005.50;5069979;28;20100;-69
2023/05/03 11:14:02;;;;;;;0.22;0.22;;;;;;;21.16;29.10;103008.53;5070406;28;20017;-67
2023/05/03 11:16:28;;;;;;;0.30;0.30;;;;;;;21.08;28.48;103001.53;5070085;28;20033;-68
2023/05/03 11:18:54;;;;;;;0.30;0.30;;;;;;;20.72;30.11;103005.41;5070137;28;20036;-67
2023/05/03 11:21:20;;;;;;;0.20;0.20;;;;;;;19.99;29.82;103010.47;5071549;28;20040;-70
2023/05/03 11:23:46;;;;;;;0.35;0.35;;;;;;;21.27;29.30;102999.44;5073881;28;20028;-69